createdAt,value
2019-01-29T00:02:12.739Z,102.50
2019-01-29T00:04:43.275Z,97.43
2019-01-29T00:07:13.965Z,95.77
2019-01-29T00:09:44.858Z,91.77
2019-01-29T00:12:16.017Z,89.03
2019-01-29T00:14:46.659Z,88.47
2019-01-29T00:17:17.409Z,91.30
2019-01-29T00:19:48.178Z,99.97
2019-01-29T00:22:18.878Z,104.70
2019-01-29T00:24:49.814Z,106.73
2019-01-29T00:27:20.423Z,95.77
2019-01-29T00:29:50.997Z,92.27
2019-01-29T00:32:21.550Z,96.37
2019-01-29T00:34:52.088Z,80.17
2019-01-29T00:37:22.632Z,74.93
2019-01-29T00:39:53.275Z,69.90
2019-01-29T00:42:24.041Z,73.40
2019-01-29T00:44:54.901Z,79.33
2019-01-29T00:47:25.655Z,86.73
2019-01-29T00:49:56.428Z,83.97
2019-01-29T00:52:27.450Z,99.23
2019-01-29T00:54:58.357Z,89.83
2019-01-29T00:57:29.142Z,97.33
2019-01-29T00:59:59.870Z,97.17
2019-01-29T01:02:30.424Z,114.37
2019-01-29T01:05:01.002Z,91.97
2019-01-29T01:07:31.502Z,93.20
2019-01-29T01:10:02.240Z,83.23
2019-01-29T01:12:32.883Z,92.13
2019-01-29T01:15:03.390Z,125.17
2019-01-29T01:17:34.071Z,77.50
2019-01-29T01:20:05.431Z,151.60
2019-01-29T01:22:35.998Z,78.57
2019-01-29T01:25:06.863Z,88.03
2019-01-29T01:27:37.504Z,85.43
2019-01-29T01:30:10.031Z,84.33
2019-01-29T01:32:40.633Z,78.90
2019-01-29T01:35:11.264Z,90.60
2019-01-29T01:37:41.817Z,81.50
2019-01-29T01:40:23.244Z,76.67
2019-01-29T01:42:53.943Z,70.87
2019-01-29T01:45:24.427Z,84.23
2019-01-29T01:47:55.017Z,84.30
2019-01-29T01:50:25.701Z,80.97
2019-01-29T01:52:59.450Z,74.87
2019-01-29T01:55:28.580Z,84.53
2019-01-29T01:57:59.167Z,84.93
2019-01-29T02:00:29.690Z,82.30
2019-01-29T02:03:00.266Z,80.57
2019-01-29T02:05:30.808Z,73.43
2019-01-29T02:08:01.371Z,71.70
2019-01-29T02:10:32.011Z,71.57
2019-01-29T02:13:02.556Z,86.73
2019-01-29T02:15:33.086Z,81.80
2019-01-29T02:18:03.654Z,90.00
2019-01-29T02:20:34.207Z,79.80
2019-01-29T02:23:08.219Z,84.03
2019-01-29T02:25:36.951Z,108.70
2019-01-29T02:28:08.498Z,97.40
2019-01-29T02:30:39.027Z,101.40
2019-01-29T02:33:09.539Z,96.27
2019-01-29T02:35:41.096Z,94.37
2019-01-29T02:38:11.675Z,81.87
2019-01-29T02:40:42.162Z,75.60
2019-01-29T02:43:12.777Z,92.27
2019-01-29T02:45:43.262Z,78.83
2019-01-29T02:48:13.807Z,74.97
2019-01-29T02:50:44.369Z,87.17
2019-01-29T02:53:18.383Z,90.63
2019-01-29T02:55:47.063Z,79.97
2019-01-29T02:58:17.710Z,84.27
2019-01-29T03:00:48.233Z,95.67
2019-01-29T03:03:18.775Z,101.53
2019-01-29T03:05:49.370Z,105.10
2019-01-29T03:08:19.986Z,96.10
2019-01-29T03:10:50.637Z,96.33
2019-01-29T03:13:21.278Z,118.73
2019-01-29T03:15:52.250Z,92.90
2019-01-29T03:18:22.802Z,113.50
2019-01-29T03:20:53.368Z,116.97
2019-01-29T03:23:27.535Z,99.03
2019-01-29T03:25:56.121Z,118.43
2019-01-29T03:28:26.675Z,99.60
2019-01-29T03:30:57.278Z,105.47
2019-01-29T03:33:27.810Z,117.77
2019-01-29T03:35:58.341Z,117.40
2019-01-29T03:38:28.851Z,100.20
2019-01-29T03:40:59.616Z,112.80
2019-01-29T03:43:30.166Z,93.77
2019-01-29T03:46:00.663Z,97.10
2019-01-29T03:48:31.322Z,104.93
2019-01-29T03:51:02.075Z,183.87
2019-01-29T03:53:38.229Z,126.33
2019-01-29T03:56:04.927Z,118.03
2019-01-29T03:58:35.376Z,138.93
2019-01-29T04:01:05.839Z,117.77
2019-01-29T04:03:36.306Z,127.60
2019-01-29T04:06:06.727Z,144.43
2019-01-29T04:08:37.195Z,136.63
2019-01-29T04:11:07.639Z,151.00
2019-01-29T04:13:38.085Z,155.80
2019-01-29T04:16:08.641Z,158.67
2019-01-29T04:18:39.116Z,264.60
2019-01-29T04:21:09.600Z,156.87
2019-01-29T04:23:47.291Z,273.90
2019-01-29T04:26:12.255Z,208.20
2019-01-29T04:28:42.711Z,171.40
2019-01-29T04:31:13.284Z,289.90
2019-01-29T04:33:43.808Z,156.27
2019-01-29T04:36:14.268Z,273.73
2019-01-29T04:38:44.789Z,196.13
2019-01-29T04:41:15.239Z,152.07
2019-01-29T04:43:45.688Z,177.17
2019-01-29T04:46:16.136Z,225.90
2019-01-29T04:48:46.651Z,281.53
2019-01-29T04:51:17.121Z,176.80
2019-01-29T04:53:56.836Z,229.70
2019-01-29T04:56:19.918Z,307.03
2019-01-29T04:58:50.462Z,268.20
2019-01-29T05:01:20.958Z,220.23
2019-01-29T05:03:51.661Z,230.53
2019-01-29T05:06:22.219Z,229.47
2019-01-29T05:08:52.645Z,164.93
2019-01-29T05:11:23.125Z,138.90
2019-01-29T05:13:53.689Z,134.53
2019-01-29T05:16:24.299Z,105.20
2019-01-29T05:18:54.806Z,124.90
2019-01-29T05:21:25.278Z,107.30
2019-01-29T05:23:55.851Z,115.17
2019-01-29T05:26:26.339Z,100.40
2019-01-29T05:28:56.818Z,100.70
2019-01-29T05:31:27.440Z,99.70
2019-01-29T05:33:58.023Z,122.93
2019-01-29T05:36:28.552Z,139.90
2019-01-29T05:38:59.028Z,126.67
2019-01-29T05:41:29.730Z,130.77
2019-01-29T05:44:00.267Z,143.07
2019-01-29T05:46:31.446Z,238.67
2019-01-29T05:49:01.929Z,282.77
2019-01-29T05:51:32.409Z,261.30
2019-01-29T05:54:02.876Z,186.13
2019-01-29T05:56:33.560Z,183.27
2019-01-29T05:59:04.032Z,212.47
2019-01-29T06:01:34.536Z,308.77
2019-01-29T06:04:05.164Z,360.30
2019-01-29T06:06:35.666Z,216.03
2019-01-29T06:09:08.790Z,298.87
2019-01-29T06:11:39.247Z,164.87
2019-01-29T06:14:09.762Z,304.33
2019-01-29T06:16:40.216Z,203.37
2019-01-29T06:19:10.619Z,246.40
2019-01-29T06:21:41.101Z,225.00
2019-01-29T06:24:11.616Z,223.00
2019-01-29T06:26:42.182Z,263.53
2019-01-29T06:29:12.681Z,254.93
2019-01-29T06:31:43.219Z,184.30
2019-01-29T06:34:13.697Z,314.30
2019-01-29T06:36:44.154Z,324.43
2019-01-29T06:39:14.618Z,314.83
2019-01-29T06:41:46.083Z,151.30
2019-01-29T06:44:16.544Z,183.77
2019-01-29T06:46:47.009Z,152.73
2019-01-29T06:49:17.499Z,131.53
2019-01-29T06:51:48.131Z,137.40
2019-01-29T06:54:18.600Z,132.10
2019-01-29T06:56:49.069Z,161.40
2019-01-29T06:59:19.541Z,151.27
2019-01-29T07:01:49.999Z,130.80
2019-01-29T07:04:20.526Z,121.13
2019-01-29T07:06:50.991Z,134.77
2019-01-29T07:09:21.474Z,145.47
2019-01-29T07:12:00.359Z,179.20
2019-01-29T07:14:30.817Z,129.90
2019-01-29T07:17:12.886Z,84.97
2019-01-29T07:19:46.142Z,86.13
2019-01-29T07:22:16.603Z,86.13
2019-01-29T07:24:47.105Z,82.73
2019-01-29T07:27:17.566Z,88.83
2019-01-29T07:29:48.056Z,106.73
2019-01-29T07:32:18.580Z,103.23
2019-01-29T07:34:49.020Z,96.37
2019-01-29T07:37:22.145Z,109.80
2019-01-29T07:39:51.661Z,100.57
2019-01-29T07:42:22.075Z,86.23
2019-01-29T07:44:52.553Z,88.97
2019-01-29T07:47:23.019Z,102.87
2019-01-29T07:49:53.411Z,109.33
2019-01-29T07:52:23.875Z,106.87
2019-01-29T07:54:54.360Z,118.47
2019-01-29T07:57:24.776Z,100.80
2019-01-29T07:59:55.280Z,120.23
2019-01-29T08:02:25.769Z,103.37
2019-01-29T08:04:56.187Z,124.10
2019-01-29T08:07:26.675Z,169.40
2019-01-29T08:09:57.222Z,117.03
2019-01-29T08:12:27.734Z,135.93
2019-01-29T08:14:58.229Z,125.97
2019-01-29T08:17:28.727Z,109.00
2019-01-29T08:19:59.251Z,90.83
2019-01-29T08:22:29.750Z,108.57
2019-01-29T08:25:01.819Z,92.83
2019-01-29T08:27:32.466Z,96.07
2019-01-29T08:30:03.135Z,70.47
2019-01-29T08:32:33.637Z,65.10
2019-01-29T08:35:04.114Z,68.40
2019-01-29T08:37:35.601Z,67.73
2019-01-29T08:40:06.510Z,67.43
2019-01-29T08:42:36.962Z,60.43
2019-01-29T08:45:07.813Z,64.53
2019-01-29T08:47:38.330Z,63.97
2019-01-29T08:50:11.415Z,64.03
2019-01-29T08:52:42.141Z,66.80
2019-01-29T08:55:12.632Z,60.47
2019-01-29T08:57:43.091Z,67.90
2019-01-29T09:00:14.775Z,57.67
2019-01-29T09:02:45.304Z,57.47
2019-01-29T09:05:15.787Z,58.60
2019-01-29T09:07:46.474Z,60.40
2019-01-29T09:10:17.124Z,57.87
2019-01-29T09:12:47.625Z,61.47
2019-01-29T09:15:18.161Z,60.30
2019-01-29T09:17:48.690Z,60.63
2019-01-29T09:20:19.263Z,53.20
2019-01-29T09:22:49.719Z,55.40
2019-01-29T09:25:22.658Z,53.30
2019-01-29T09:27:52.331Z,51.73
2019-01-29T09:30:22.952Z,49.33
2019-01-29T09:32:53.416Z,68.93
2019-01-29T09:35:23.875Z,51.07
2019-01-29T09:37:54.365Z,52.17
2019-01-29T09:40:24.818Z,48.37
2019-01-29T09:42:55.231Z,52.27
2019-01-29T09:45:25.741Z,52.97
2019-01-29T09:47:56.201Z,68.17
2019-01-29T09:50:26.677Z,67.33
2019-01-29T09:52:57.143Z,62.27
2019-01-29T09:55:29.629Z,63.60
2019-01-29T09:58:00.041Z,73.00
2019-01-29T10:00:35.822Z,57.63
2019-01-29T10:03:06.503Z,56.53
2019-01-29T10:05:37.969Z,56.87
2019-01-29T10:08:08.479Z,55.27
2019-01-29T10:10:38.869Z,54.77
2019-01-29T10:13:09.323Z,52.03
2019-01-29T10:15:39.778Z,55.97
2019-01-29T10:18:10.249Z,68.73
2019-01-29T10:20:40.770Z,66.10
2019-01-29T10:23:12.246Z,61.47
2019-01-29T10:25:42.697Z,59.90
2019-01-29T10:28:13.363Z,60.63
2019-01-29T10:30:43.836Z,62.47
2019-01-29T10:33:14.336Z,64.47
2019-01-29T10:35:44.791Z,58.60
2019-01-29T10:38:15.289Z,56.40
2019-01-29T10:40:45.751Z,66.57
2019-01-29T10:43:16.424Z,77.43
2019-01-29T10:45:47.499Z,74.70
2019-01-29T10:48:17.959Z,448.63
2019-01-29T10:50:48.434Z,59.43
2019-01-29T10:53:19.501Z,58.13
2019-01-29T10:55:49.976Z,96.03
2019-01-29T10:58:20.513Z,232.90
2019-01-29T11:00:51.624Z,227.50
2019-01-29T11:03:22.686Z,69.75
2019-01-29T11:05:53.750Z,65.00
2019-01-29T11:08:24.861Z,65.50
2019-01-29T11:10:55.321Z,66.13
2019-01-29T11:13:26.435Z,74.82
2019-01-29T11:15:57.510Z,66.00
2019-01-29T11:18:27.970Z,55.87
2019-01-29T11:20:59.055Z,61.75
2019-01-29T11:23:29.575Z,61.67
2019-01-29T11:26:00.018Z,62.07
2019-01-29T11:28:31.113Z,58.80
2019-01-29T11:31:02.168Z,55.20
2019-01-29T11:33:33.230Z,56.70
2019-01-29T11:36:04.307Z,57.62
2019-01-29T11:38:35.378Z,55.40
2019-01-29T11:41:06.444Z,54.00
2019-01-29T11:43:37.498Z,61.77
2019-01-29T11:46:08.578Z,76.40
2019-01-29T11:48:39.641Z,61.10
2019-01-29T11:51:10.707Z,62.88
2019-01-29T11:53:41.835Z,69.47
2019-01-29T11:56:12.902Z,67.22
2019-01-29T11:58:43.954Z,65.17
2019-01-29T12:01:17.993Z,69.00
2019-01-29T12:03:49.065Z,71.22
2019-01-29T12:06:20.105Z,70.22
2019-01-29T12:08:51.188Z,65.52
2019-01-29T12:11:22.269Z,60.95
2019-01-29T12:13:53.336Z,64.03
2019-01-29T12:16:24.382Z,64.67
2019-01-29T12:18:55.413Z,66.28
2019-01-29T12:21:26.476Z,65.22
2019-01-29T12:23:57.769Z,64.45
2019-01-29T12:26:28.840Z,72.95
2019-01-29T12:28:59.816Z,76.10
2019-01-29T12:31:30.875Z,72.47
2019-01-29T12:34:01.921Z,70.80
2019-01-29T12:36:32.971Z,182.62
2019-01-29T12:39:07.746Z,81.25
2019-01-29T12:41:39.007Z,65.28
2019-01-29T12:44:10.064Z,55.52
2019-01-29T12:46:41.099Z,59.08
2019-01-29T12:49:12.134Z,55.35
2019-01-29T12:51:52.351Z,51.30
2019-01-29T12:54:23.440Z,66.80
2019-01-29T12:56:54.528Z,65.17
2019-01-29T12:59:25.598Z,58.00
2019-01-29T13:01:56.634Z,54.65
2019-01-29T13:04:27.679Z,55.05
2019-01-29T13:06:58.800Z,59.65
2019-01-29T13:09:29.881Z,62.45
2019-01-29T13:12:00.923Z,56.53
2019-01-29T13:14:31.966Z,55.43
2019-01-29T13:17:03.016Z,58.02
2019-01-29T13:19:34.082Z,58.95
2019-01-29T13:22:05.239Z,54.65
2019-01-29T13:24:36.308Z,54.50
2019-01-29T13:27:07.351Z,57.25
2019-01-29T13:29:38.369Z,57.20
2019-01-29T13:32:09.447Z,53.15
2019-01-29T13:34:40.506Z,64.67
2019-01-29T13:37:11.543Z,65.05
2019-01-29T13:39:42.589Z,58.75
2019-01-29T13:42:13.620Z,59.45
2019-01-29T13:44:44.660Z,59.50
2019-01-29T13:47:15.749Z,58.05
2019-01-29T13:49:46.825Z,59.42
2019-01-29T13:52:17.922Z,61.55
2019-01-29T13:54:49.030Z,59.75
2019-01-29T13:57:20.102Z,62.85
2019-01-29T13:59:51.170Z,64.55
2019-01-29T14:02:22.257Z,70.22
2019-01-29T14:04:53.296Z,100.72
2019-01-29T14:07:24.345Z,107.67
2019-01-29T14:09:58.135Z,100.42
2019-01-29T14:12:29.121Z,98.85
2019-01-29T14:15:00.275Z,100.53
2019-01-29T14:17:31.287Z,90.45
2019-01-29T14:20:02.341Z,90.42
2019-01-29T14:22:33.409Z,91.00
2019-01-29T14:25:04.680Z,185.48
2019-01-29T14:27:35.784Z,161.10
2019-01-29T14:30:09.397Z,140.85
2019-01-29T14:32:40.506Z,124.97
2019-01-29T14:35:11.551Z,141.77
2019-01-29T14:38:29.197Z,135.93
2019-01-29T14:41:00.844Z,129.15
2019-01-29T14:43:32.707Z,110.00
2019-01-29T14:46:03.786Z,80.30
2019-01-29T14:48:34.844Z,96.85
2019-01-29T14:51:05.951Z,96.78
2019-01-29T14:53:37.064Z,79.67
2019-01-29T14:56:08.137Z,76.10
2019-01-29T14:58:39.214Z,77.10
2019-01-29T15:01:10.316Z,83.72
2019-01-29T15:03:41.361Z,99.52
2019-01-29T15:06:12.525Z,94.13
2019-01-29T15:08:43.556Z,83.52
2019-01-29T15:11:14.740Z,93.10
2019-01-29T15:13:45.893Z,108.37
2019-01-29T15:16:31.286Z,111.92
2019-01-29T15:19:06.332Z,124.70
2019-01-29T15:21:38.217Z,159.80
2019-01-29T15:24:09.386Z,176.75
2019-01-29T15:26:39.903Z,120.50
2019-01-29T15:29:10.907Z,126.47
2019-01-29T15:31:41.969Z,138.68
2019-01-29T15:34:13.021Z,139.90
2019-01-29T15:36:44.206Z,150.60
2019-01-29T15:39:15.327Z,157.67
2019-01-29T15:41:45.816Z,135.97
2019-01-29T15:44:16.309Z,102.03
2019-01-29T15:46:47.355Z,109.85
2019-01-29T15:49:17.883Z,129.30
2019-01-29T15:51:48.330Z,160.73
2019-01-29T15:54:18.878Z,129.83
2019-01-29T15:56:49.331Z,117.80
2019-01-29T15:59:20.404Z,139.15
2019-01-29T16:01:50.858Z,143.93
2019-01-29T16:04:21.443Z,180.93
2019-01-29T16:06:51.919Z,127.40
2019-01-29T16:09:22.377Z,120.97
2019-01-29T16:11:52.834Z,132.57
2019-01-29T16:14:23.317Z,146.97
2019-01-29T16:16:53.793Z,145.80
2019-01-29T16:19:24.278Z,145.67
2019-01-29T16:21:54.738Z,160.50
2019-01-29T16:24:25.218Z,183.27
2019-01-29T16:26:55.752Z,180.90
2019-01-29T16:29:27.233Z,203.20
2019-01-29T16:31:57.725Z,212.70
2019-01-29T16:34:28.230Z,184.73
2019-01-29T16:36:58.822Z,189.17
2019-01-29T16:39:29.226Z,194.37
2019-01-29T16:41:59.711Z,194.30
2019-01-29T16:44:30.190Z,206.77
2019-01-29T16:47:00.674Z,212.10
2019-01-29T16:49:32.165Z,175.33
2019-01-29T16:52:02.674Z,165.90
2019-01-29T16:54:33.123Z,175.17
2019-01-29T16:57:03.623Z,188.87
2019-01-29T16:59:35.012Z,186.92
2019-01-29T17:02:05.841Z,175.90
2019-01-29T17:04:36.397Z,153.63
2019-01-29T17:07:08.793Z,163.20
2019-01-29T17:09:39.342Z,167.87
2019-01-29T17:12:09.837Z,217.90
2019-01-29T17:14:40.335Z,198.87
2019-01-29T17:17:11.234Z,206.63
2019-01-29T17:19:41.799Z,270.07
2019-01-29T17:22:12.345Z,325.23
2019-01-29T17:24:42.919Z,262.83
2019-01-29T17:27:13.421Z,213.73
2019-01-29T17:29:43.910Z,210.63
2019-01-29T17:32:14.402Z,229.60
2019-01-29T17:34:44.951Z,242.27
2019-01-29T17:37:15.477Z,256.30
2019-01-29T17:39:45.976Z,258.17
2019-01-29T17:42:18.050Z,288.43
2019-01-29T17:44:48.540Z,286.27
2019-01-29T17:47:19.038Z,284.70
2019-01-29T17:49:49.508Z,293.00
2019-01-29T17:52:20.097Z,296.50
2019-01-29T17:54:50.606Z,276.37
2019-01-29T17:57:21.101Z,209.17
2019-01-29T17:59:51.614Z,215.70
2019-01-29T18:02:23.146Z,227.63
2019-01-29T18:04:53.704Z,179.07
2019-01-29T18:07:24.284Z,203.97
2019-01-29T18:09:54.906Z,223.63
2019-01-29T18:12:25.415Z,234.37
2019-01-29T18:14:55.921Z,241.70
2019-01-29T18:17:26.418Z,218.57
2019-01-29T18:19:56.920Z,205.07
2019-01-29T18:22:27.403Z,225.00
2019-01-29T18:24:57.933Z,255.70
2019-01-29T18:27:28.437Z,211.03
2019-01-29T18:29:59.064Z,182.93
2019-01-29T18:32:29.537Z,238.07
2019-01-29T18:35:00.037Z,224.00
2019-01-29T18:37:30.586Z,252.93
2019-01-29T18:40:01.217Z,224.63
2019-01-29T18:42:31.968Z,192.50
2019-01-29T18:45:02.485Z,162.07
2019-01-29T18:47:33.070Z,226.83
2019-01-29T18:50:03.619Z,191.57
2019-01-29T18:52:35.123Z,229.33
2019-01-29T18:55:07.166Z,227.00
2019-01-29T18:57:37.684Z,280.23
2019-01-29T19:00:12.198Z,263.53
2019-01-29T19:02:42.700Z,246.37
2019-01-29T19:05:13.222Z,217.33
2019-01-29T19:07:44.906Z,275.77
2019-01-29T19:10:17.317Z,288.67
2019-01-29T19:12:49.736Z,286.10
2019-01-29T19:15:21.723Z,337.57
2019-01-29T19:17:53.219Z,389.40
2019-01-29T19:20:24.748Z,336.83
2019-01-29T19:22:55.222Z,363.20
2019-01-29T19:25:25.732Z,281.37
2019-01-29T19:27:56.196Z,322.80
2019-01-29T19:30:28.956Z,358.37
2019-01-29T19:32:59.445Z,275.13
2019-01-29T19:35:29.948Z,413.97
2019-01-29T19:38:01.515Z,321.43
2019-01-29T19:40:32.030Z,447.57
2019-01-29T19:43:02.573Z,427.03
2019-01-29T19:45:34.177Z,503.73
2019-01-29T19:48:05.684Z,228.50
2019-01-29T19:50:36.303Z,297.20
2019-01-29T19:53:06.835Z,353.83
2019-01-29T19:55:37.363Z,424.53
2019-01-29T19:58:09.169Z,374.10
2019-01-29T20:00:42.938Z,314.00
2019-01-29T20:03:13.522Z,325.37
2019-01-29T20:05:44.020Z,287.93
2019-01-29T20:08:14.507Z,335.00
2019-01-29T20:10:45.017Z,313.03
2019-01-29T20:13:15.539Z,269.50
2019-01-29T20:15:46.087Z,288.00
2019-01-29T20:18:16.671Z,259.57
2019-01-29T20:20:47.166Z,248.03
2019-01-29T20:23:17.689Z,240.43
2019-01-29T20:25:49.161Z,216.60
2019-01-29T20:28:19.693Z,198.90
2019-01-29T20:30:50.428Z,335.73
2019-01-29T20:33:20.964Z,191.60
2019-01-29T20:35:51.457Z,182.93
2019-01-29T20:38:22.047Z,255.87
2019-01-29T20:40:52.546Z,308.13
2019-01-29T20:43:25.370Z,175.47
2019-01-29T20:45:55.482Z,288.50
2019-01-29T20:48:25.975Z,229.43
2019-01-29T20:50:56.470Z,230.77
2019-01-29T20:53:27.006Z,296.37
2019-01-29T20:55:57.749Z,314.20
2019-01-29T20:58:28.227Z,269.70
2019-01-29T21:00:58.784Z,288.57
2019-01-29T21:03:29.292Z,303.00
2019-01-29T21:05:59.832Z,311.77
2019-01-29T21:08:30.354Z,271.20
2019-01-29T21:11:00.846Z,243.57
2019-01-29T21:13:31.317Z,264.47
2019-01-29T21:16:01.814Z,266.27
2019-01-29T21:18:32.321Z,222.00
2019-01-29T21:21:02.760Z,289.23
2019-01-29T21:23:33.154Z,193.23
2019-01-29T21:26:03.642Z,264.07
2019-01-29T21:28:34.170Z,270.47
2019-01-29T21:31:04.647Z,368.57
2019-01-29T21:33:35.118Z,306.47
2019-01-29T21:36:05.604Z,279.33
2019-01-29T21:38:36.074Z,281.63
2019-01-29T21:41:06.571Z,224.67
2019-01-29T21:43:37.100Z,279.73
2019-01-29T21:46:07.564Z,334.50
2019-01-29T21:48:38.037Z,287.03
2019-01-29T21:51:08.507Z,234.07
2019-01-29T21:53:38.992Z,227.63
2019-01-29T21:56:09.410Z,194.30
2019-01-29T21:58:39.900Z,163.13
2019-01-29T22:01:10.398Z,239.87
2019-01-29T22:03:40.842Z,189.80
2019-01-29T22:06:11.307Z,181.50
2019-01-29T22:08:41.755Z,290.27
2019-01-29T22:11:12.297Z,188.67
2019-01-29T22:13:42.783Z,181.50
2019-01-29T22:16:13.244Z,255.00
2019-01-29T22:18:43.695Z,309.03
2019-01-29T22:21:14.177Z,183.93
2019-01-29T22:23:44.600Z,176.17
2019-01-29T22:26:15.111Z,278.93
2019-01-29T22:28:45.533Z,173.77
2019-01-29T22:31:15.926Z,218.47
2019-01-29T22:33:46.385Z,206.80
2019-01-29T22:36:16.862Z,189.03
2019-01-29T22:38:47.297Z,156.40
2019-01-29T22:41:17.765Z,187.93
2019-01-29T22:43:48.134Z,172.20
2019-01-29T22:46:18.594Z,145.20
2019-01-29T22:48:48.974Z,151.77
2019-01-29T22:51:19.478Z,171.00
2019-01-29T22:53:49.968Z,159.80
2019-01-29T22:56:20.437Z,151.20
2019-01-29T22:58:50.882Z,132.27
2019-01-29T23:01:33.458Z,119.53
2019-01-29T23:04:27.420Z,197.07
2019-01-29T23:07:07.077Z,209.10
2019-01-29T23:09:37.515Z,122.17
2019-01-29T23:12:07.968Z,116.63
2019-01-29T23:14:38.414Z,160.80
2019-01-29T23:17:08.885Z,130.77
2019-01-29T23:19:39.368Z,135.27
2019-01-29T23:22:10.109Z,158.67
2019-01-29T23:24:40.557Z,156.20
2019-01-29T23:27:11.138Z,214.07
2019-01-29T23:29:43.562Z,211.23
2019-01-29T23:32:13.763Z,294.80
2019-01-29T23:34:44.133Z,262.97
2019-01-29T23:37:14.605Z,297.77
2019-01-29T23:39:45.062Z,150.93
2019-01-29T23:42:15.561Z,153.07
2019-01-29T23:44:45.942Z,212.90
2019-01-29T23:47:16.338Z,242.33
2019-01-29T23:49:46.793Z,213.93
2019-01-29T23:52:17.253Z,239.90
2019-01-29T23:54:47.706Z,185.63
2019-01-29T23:57:18.405Z,214.03
2019-01-29T23:59:53.667Z,237.23
